sensor_id;sensor_type;location;lat;lon;timestamp;pressure;altitude;pressure_sealevel;temperature;humidity
49645;BME280;36494;50.730;-1.932;2023-05-23T00:01:13;101959.26;;;14.41;100.00
49645;BME280;36494;50.730;-1.932;2023-05-23T00:03:38;101958.97;;;14.41;100.00
49645;BME280;36494;50.730;-1.932;2023-05-23T00:06:05;101960.31;;;14.32;100.00
49645;BME280;36494;50.730;-1.932;2023-05-23T00:08:29;101960.17;;;14.28;100.00
49645;BME280;36494;50.730;-1.932;2023-05-23T00:10:54;101961.87;;;14.24;100.00
49645;BME280;36494;50.730;-1.932;2023-05-23T00:13:19;101964.60;;;14.19;100.00
49645;BME280;36494;50.730;-1.932;2023-05-23T00:15:44;101966.31;;;14.19;100.00
49645;BME280;36494;50.730;-1.932;2023-05-23T00:18:10;101963.92;;;14.10;100.00
49645;BME280;36494;50.730;-1.932;2023-05-23T00:20:35;101964.95;;;14.08;100.00
49645;BME280;36494;50.730;-1.932;2023-05-23T00:23:00;101967.23;;;14.05;100.00
49645;BME280;36494;50.730;-1.932;2023-05-23T00:25:25;101964.59;;;14.01;100.00
49645;BME280;36494;50.730;-1.932;2023-05-23T00:27:50;101966.34;;;13.96;100.00
49645;BME280;36494;50.730;-1.932;2023-05-23T00:30:16;101970.42;;;13.97;100.00
49645;BME280;36494;50.730;-1.932;2023-05-23T00:32:41;101972.32;;;13.93;100.00
49645;BME280;36494;50.730;-1.932;2023-05-23T00:35:07;101972.12;;;13.89;100.00
49645;BME280;36494;50.730;-1.932;2023-05-23T00:37:31;101974.72;;;13.87;100.00
49645;BME280;36494;50.730;-1.932;2023-05-23T00:39:56;101976.57;;;13.83;100.00
49645;BME280;36494;50.730;-1.932;2023-05-23T00:42:22;101975.23;;;13.80;100.00
49645;BME280;36494;50.730;-1.932;2023-05-23T00:44:47;101975.71;;;13.76;100.00
49645;BME280;36494;50.730;-1.932;2023-05-23T00:47:12;101973.28;;;13.70;100.00
49645;BME280;36494;50.730;-1.932;2023-05-23T00:49:37;101969.40;;;13.66;100.00
49645;BME280;36494;50.730;-1.932;2023-05-23T00:52:03;101967.42;;;13.63;100.00
49645;BME280;36494;50.730;-1.932;2023-05-23T00:54:29;101968.49;;;13.57;100.00
49645;BME280;36494;50.730;-1.932;2023-05-23T00:56:53;101969.30;;;13.53;100.00
49645;BME280;36494;50.730;-1.932;2023-05-23T00:59:18;101976.16;;;13.47;100.00
49645;BME280;36494;50.730;-1.932;2023-05-23T01:01:43;101973.35;;;13.42;100.00
49645;BME280;36494;50.730;-1.932;2023-05-23T01:04:09;101970.78;;;13.36;100.00
49645;BME280;36494;50.730;-1.932;2023-05-23T01:06:34;101975.71;;;13.30;100.00
49645;BME280;36494;50.730;-1.932;2023-05-23T01:08:59;101978.63;;;13.25;100.00
49645;BME280;36494;50.730;-1.932;2023-05-23T01:11:38;101979.84;;;13.19;100.00
49645;BME280;36494;50.730;-1.932;2023-05-23T01:13:58;101973.40;;;13.12;100.00
49645;BME280;36494;50.730;-1.932;2023-05-23T01:16:18;101975.40;;;13.07;100.00
49645;BME280;36494;50.730;-1.932;2023-05-23T01:18:50;101973.58;;;13.03;100.00
49645;BME280;36494;50.730;-1.932;2023-05-23T01:21:10;101971.79;;;12.97;100.00
49645;BME280;36494;50.730;-1.932;2023-05-23T01:23:45;101975.86;;;12.95;100.00
49645;BME280;36494;50.730;-1.932;2023-05-23T01:26:13;101977.40;;;12.91;100.00
49645;BME280;36494;50.730;-1.932;2023-05-23T01:28:22;101979.54;;;12.85;100.00
49645;BME280;36494;50.730;-1.932;2023-05-23T01:30:51;101980.45;;;12.80;100.00
49645;BME280;36494;50.730;-1.932;2023-05-23T01:33:15;101982.60;;;12.72;100.00
49645;BME280;36494;50.730;-1.932;2023-05-23T01:35:39;101980.63;;;12.71;100.00
49645;BME280;36494;50.730;-1.932;2023-05-23T01:38:03;101977.94;;;12.65;100.00
49645;BME280;36494;50.730;-1.932;2023-05-23T01:40:29;101976.26;;;12.60;100.00
49645;BME280;36494;50.730;-1.932;2023-05-23T01:42:55;101977.76;;;12.58;100.00
49645;BME280;36494;50.730;-1.932;2023-05-23T01:45:20;101979.33;;;12.50;100.00
49645;BME280;36494;50.730;-1.932;2023-05-23T01:47:46;101980.66;;;12.45;100.00
49645;BME280;36494;50.730;-1.932;2023-05-23T01:50:11;101985.32;;;12.42;100.00
49645;BME280;36494;50.730;-1.932;2023-05-23T01:52:36;101986.53;;;12.37;100.00
49645;BME280;36494;50.730;-1.932;2023-05-23T01:55:05;101985.32;;;12.32;100.00
49645;BME280;36494;50.730;-1.932;2023-05-23T01:57:28;101987.87;;;12.27;100.00
49645;BME280;36494;50.730;-1.932;2023-05-23T01:59:53;101990.34;;;12.21;100.00
49645;BME280;36494;50.730;-1.932;2023-05-23T02:02:18;101995.08;;;12.19;100.00
49645;BME280;36494;50.730;-1.932;2023-05-23T02:04:44;101998.79;;;12.17;100.00
49645;BME280;36494;50.730;-1.932;2023-05-23T02:07:09;102002.79;;;12.14;100.00
49645;BME280;36494;50.730;-1.932;2023-05-23T02:09:34;102003.74;;;12.11;100.00
49645;BME280;36494;50.730;-1.932;2023-05-23T02:11:59;102005.26;;;12.02;100.00
49645;BME280;36494;50.730;-1.932;2023-05-23T02:14:25;102009.48;;;12.00;100.00
49645;BME280;36494;50.730;-1.932;2023-05-23T02:16:50;102014.85;;;11.98;100.00
49645;BME280;36494;50.730;-1.932;2023-05-23T02:19:16;102010.47;;;11.95;100.00
49645;BME280;36494;50.730;-1.932;2023-05-23T02:21:41;102004.50;;;11.89;100.00
49645;BME280;36494;50.730;-1.932;2023-05-23T02:24:06;102004.07;;;11.87;100.00
49645;BME280;36494;50.730;-1.932;2023-05-23T02:26:31;101998.25;;;11.85;100.00
49645;BME280;36494;50.730;-1.932;2023-05-23T02:28:57;101998.97;;;11.83;100.00
49645;BME280;36494;50.730;-1.932;2023-05-23T02:31:22;102001.94;;;11.78;100.00
49645;BME280;36494;50.730;-1.932;2023-05-23T02:33:47;102001.89;;;11.77;100.00
49645;BME280;36494;50.730;-1.932;2023-05-23T02:36:13;102002.34;;;11.70;100.00
49645;BME280;36494;50.730;-1.932;2023-05-23T02:38:38;102003.85;;;11.66;100.00
49645;BME280;36494;50.730;-1.932;2023-05-23T02:41:04;102006.49;;;11.64;100.00
49645;BME280;36494;50.730;-1.932;2023-05-23T02:43:30;102009.13;;;11.62;100.00
49645;BME280;36494;50.730;-1.932;2023-05-23T02:45:55;102013.39;;;11.57;100.00
49645;BME280;36494;50.730;-1.932;2023-05-23T02:48:20;102017.95;;;11.52;100.00
49645;BME280;36494;50.730;-1.932;2023-05-23T02:50:46;102016.63;;;11.50;100.00
49645;BME280;36494;50.730;-1.932;2023-05-23T02:53:11;102017.04;;;11.48;100.00
49645;BME280;36494;50.730;-1.932;2023-05-23T02:55:37;102018.37;;;11.45;100.00
49645;BME280;36494;50.730;-1.932;2023-05-23T02:58:02;102020.62;;;11.43;100.00
49645;BME280;36494;50.730;-1.932;2023-05-23T03:00:27;102024.38;;;11.41;100.00
49645;BME280;36494;50.730;-1.932;2023-05-23T03:02:53;102023.16;;;11.39;100.00
49645;BME280;36494;50.730;-1.932;2023-05-23T03:05:18;102019.41;;;11.35;100.00
49645;BME280;36494;50.730;-1.932;2023-05-23T03:07:43;102020.29;;;11.33;100.00
49645;BME280;36494;50.730;-1.932;2023-05-23T03:10:09;102023.18;;;11.30;100.00
49645;BME280;36494;50.730;-1.932;2023-05-23T03:12:34;102026.49;;;11.28;100.00
49645;BME280;36494;50.730;-1.932;2023-05-23T03:14:59;102024.02;;;11.24;100.00
49645;BME280;36494;50.730;-1.932;2023-05-23T03:17:25;102019.59;;;11.23;100.00
49645;BME280;36494;50.730;-1.932;2023-05-23T03:19:50;102021.76;;;11.24;100.00
49645;BME280;36494;50.730;-1.932;2023-05-23T03:22:15;102019.65;;;11.19;100.00
49645;BME280;36494;50.730;-1.932;2023-05-23T03:24:41;102010.34;;;11.20;100.00
49645;BME280;36494;50.730;-1.932;2023-05-23T03:27:06;102014.30;;;11.18;100.00
49645;BME280;36494;50.730;-1.932;2023-05-23T03:29:32;102014.32;;;11.17;100.00
49645;BME280;36494;50.730;-1.932;2023-05-23T03:31:57;102012.29;;;11.15;100.00
49645;BME280;36494;50.730;-1.932;2023-05-23T03:34:22;102011.96;;;11.14;100.00
49645;BME280;36494;50.730;-1.932;2023-05-23T03:36:48;102010.87;;;11.08;100.00
49645;BME280;36494;50.730;-1.932;2023-05-23T03:39:13;102010.44;;;11.08;100.00
49645;BME280;36494;50.730;-1.932;2023-05-23T03:41:38;102009.39;;;11.06;100.00
49645;BME280;36494;50.730;-1.932;2023-05-23T03:44:03;102008.84;;;11.06;100.00
49645;BME280;36494;50.730;-1.932;2023-05-23T03:46:28;102006.70;;;11.04;100.00
49645;BME280;36494;50.730;-1.932;2023-05-23T03:48:54;102007.29;;;11.03;100.00
49645;BME280;36494;50.730;-1.932;2023-05-23T03:51:19;102003.01;;;11.02;100.00
49645;BME280;36494;50.730;-1.932;2023-05-23T03:53:45;102006.57;;;11.01;100.00
49645;BME280;36494;50.730;-1.932;2023-05-23T03:56:10;102006.07;;;10.99;100.00
49645;BME280;36494;50.730;-1.932;2023-05-23T03:58:36;102003.85;;;10.97;100.00
49645;BME280;36494;50.730;-1.932;2023-05-23T04:01:01;102008.71;;;10.92;100.00
49645;BME280;36494;50.730;-1.932;2023-05-23T04:03:26;102009.04;;;10.93;100.00
49645;BME280;36494;50.730;-1.932;2023-05-23T04:05:52;102010.08;;;10.93;100.00
49645;BME280;36494;50.730;-1.932;2023-05-23T04:08:17;102007.41;;;10.91;100.00
49645;BME280;36494;50.730;-1.932;2023-05-23T04:10:43;102011.67;;;10.90;100.00
49645;BME280;36494;50.730;-1.932;2023-05-23T04:13:08;102008.52;;;10.86;100.00
49645;BME280;36494;50.730;-1.932;2023-05-23T04:15:33;102013.39;;;10.84;100.00
49645;BME280;36494;50.730;-1.932;2023-05-23T04:17:59;102017.12;;;10.83;100.00
49645;BME280;36494;50.730;-1.932;2023-05-23T04:20:24;102015.59;;;10.80;100.00
49645;BME280;36494;50.730;-1.932;2023-05-23T04:22:49;102011.58;;;10.79;100.00
49645;BME280;36494;50.730;-1.932;2023-05-23T04:25:15;102012.74;;;10.77;100.00
49645;BME280;36494;50.730;-1.932;2023-05-23T04:27:40;102016.99;;;10.75;100.00
49645;BME280;36494;50.730;-1.932;2023-05-23T04:30:06;102016.55;;;10.75;100.00
49645;BME280;36494;50.730;-1.932;2023-05-23T04:32:31;102014.85;;;10.74;100.00
49645;BME280;36494;50.730;-1.932;2023-05-23T04:34:56;102016.35;;;10.72;100.00
49645;BME280;36494;50.730;-1.932;2023-05-23T04:37:21;102012.87;;;10.72;100.00
49645;BME280;36494;50.730;-1.932;2023-05-23T04:39:47;102014.66;;;10.67;100.00
49645;BME280;36494;50.730;-1.932;2023-05-23T04:42:12;102016.63;;;10.71;100.00
49645;BME280;36494;50.730;-1.932;2023-05-23T04:44:37;102023.48;;;10.72;100.00
49645;BME280;36494;50.730;-1.932;2023-05-23T04:47:03;102028.10;;;10.73;100.00
49645;BME280;36494;50.730;-1.932;2023-05-23T04:49:28;102026.99;;;10.71;100.00
49645;BME280;36494;50.730;-1.932;2023-05-23T04:51:54;102027.69;;;10.72;100.00
49645;BME280;36494;50.730;-1.932;2023-05-23T04:54:19;102029.75;;;10.72;100.00
49645;BME280;36494;50.730;-1.932;2023-05-23T04:56:44;102029.48;;;10.71;100.00
49645;BME280;36494;50.730;-1.932;2023-05-23T04:59:10;102028.89;;;10.71;100.00
49645;BME280;36494;50.730;-1.932;2023-05-23T05:01:35;102032.99;;;10.72;100.00
49645;BME280;36494;50.730;-1.932;2023-05-23T05:04:01;102032.09;;;10.73;100.00
49645;BME280;36494;50.730;-1.932;2023-05-23T05:06:26;102035.28;;;10.74;100.00
49645;BME280;36494;50.730;-1.932;2023-05-23T05:08:51;102037.85;;;10.74;100.00
49645;BME280;36494;50.730;-1.932;2023-05-23T05:11:16;102037.16;;;10.74;100.00
49645;BME280;36494;50.730;-1.932;2023-05-23T05:13:42;102040.94;;;10.74;100.00
49645;BME280;36494;50.730;-1.932;2023-05-23T05:16:07;102044.88;;;10.73;100.00
49645;BME280;36494;50.730;-1.932;2023-05-23T05:18:34;102049.42;;;10.74;100.00
49645;BME280;36494;50.730;-1.932;2023-05-23T05:20:58;102057.31;;;10.76;100.00
49645;BME280;36494;50.730;-1.932;2023-05-23T05:23:25;102060.39;;;10.78;100.00
49645;BME280;36494;50.730;-1.932;2023-05-23T05:25:49;102063.70;;;10.77;100.00
49645;BME280;36494;50.730;-1.932;2023-05-23T05:28:14;102071.64;;;10.79;100.00
49645;BME280;36494;50.730;-1.932;2023-05-23T05:30:40;102073.52;;;10.79;100.00
49645;BME280;36494;50.730;-1.932;2023-05-23T05:33:05;102077.11;;;10.81;100.00
49645;BME280;36494;50.730;-1.932;2023-05-23T05:35:31;102077.71;;;10.80;100.00
49645;BME280;36494;50.730;-1.932;2023-05-23T05:37:56;102075.09;;;10.82;100.00
49645;BME280;36494;50.730;-1.932;2023-05-23T05:40:21;102078.76;;;10.81;100.00
49645;BME280;36494;50.730;-1.932;2023-05-23T05:42:47;102083.72;;;10.82;100.00
49645;BME280;36494;50.730;-1.932;2023-05-23T05:45:12;102080.59;;;10.84;100.00
49645;BME280;36494;50.730;-1.932;2023-05-23T05:47:37;102086.11;;;10.85;100.00
49645;BME280;36494;50.730;-1.932;2023-05-23T05:50:03;102085.95;;;10.86;100.00
49645;BME280;36494;50.730;-1.932;2023-05-23T05:52:28;102085.04;;;10.89;100.00
49645;BME280;36494;50.730;-1.932;2023-05-23T05:54:54;102083.83;;;10.92;100.00
49645;BME280;36494;50.730;-1.932;2023-05-23T05:57:19;102084.02;;;10.91;100.00
49645;BME280;36494;50.730;-1.932;2023-05-23T05:59:44;102083.67;;;10.93;100.00
49645;BME280;36494;50.730;-1.932;2023-05-23T06:02:10;102080.85;;;10.97;100.00
49645;BME280;36494;50.730;-1.932;2023-05-23T06:04:35;102083.09;;;10.99;100.00
49645;BME280;36494;50.730;-1.932;2023-05-23T06:07:00;102087.10;;;11.02;100.00
49645;BME280;36494;50.730;-1.932;2023-05-23T06:09:26;102087.67;;;11.06;100.00
49645;BME280;36494;50.730;-1.932;2023-05-23T06:11:51;102091.27;;;11.09;100.00
49645;BME280;36494;50.730;-1.932;2023-05-23T06:14:16;102096.34;;;11.12;100.00
49645;BME280;36494;50.730;-1.932;2023-05-23T06:16:42;102095.65;;;11.16;100.00
49645;BME280;36494;50.730;-1.932;2023-05-23T06:19:07;102096.50;;;11.19;100.00
49645;BME280;36494;50.730;-1.932;2023-05-23T06:21:32;102097.41;;;11.21;100.00
49645;BME280;36494;50.730;-1.932;2023-05-23T06:23:57;102096.05;;;11.23;100.00
49645;BME280;36494;50.730;-1.932;2023-05-23T06:26:23;102098.79;;;11.26;100.00
49645;BME280;36494;50.730;-1.932;2023-05-23T06:28:48;102102.01;;;11.27;100.00
49645;BME280;36494;50.730;-1.932;2023-05-23T06:31:14;102103.52;;;11.31;100.00
49645;BME280;36494;50.730;-1.932;2023-05-23T06:33:40;102104.20;;;11.34;100.00
49645;BME280;36494;50.730;-1.932;2023-05-23T06:36:05;102105.02;;;11.40;100.00
49645;BME280;36494;50.730;-1.932;2023-05-23T06:38:31;102099.55;;;11.45;100.00
49645;BME280;36494;50.730;-1.932;2023-05-23T06:40:56;102098.40;;;11.49;100.00
49645;BME280;36494;50.730;-1.932;2023-05-23T06:43:21;102098.91;;;11.54;100.00
49645;BME280;36494;50.730;-1.932;2023-05-23T06:45:47;102098.80;;;11.59;100.00
49645;BME280;36494;50.730;-1.932;2023-05-23T06:48:12;102101.79;;;11.63;100.00
49645;BME280;36494;50.730;-1.932;2023-05-23T06:50:37;102105.30;;;11.69;100.00
49645;BME280;36494;50.730;-1.932;2023-05-23T06:53:03;102104.75;;;11.75;100.00
49645;BME280;36494;50.730;-1.932;2023-05-23T06:55:28;102101.49;;;11.77;100.00
49645;BME280;36494;50.730;-1.932;2023-05-23T06:57:54;102098.94;;;11.83;100.00
49645;BME280;36494;50.730;-1.932;2023-05-23T07:00:19;102100.62;;;11.89;100.00
49645;BME280;36494;50.730;-1.932;2023-05-23T07:02:44;102102.67;;;11.96;100.00
49645;BME280;36494;50.730;-1.932;2023-05-23T07:05:09;102103.04;;;12.04;100.00
49645;BME280;36494;50.730;-1.932;2023-05-23T07:07:35;102096.83;;;12.10;100.00
49645;BME280;36494;50.730;-1.932;2023-05-23T07:10:00;102098.30;;;12.19;100.00
49645;BME280;36494;50.730;-1.932;2023-05-23T07:12:25;102099.82;;;12.24;100.00
49645;BME280;36494;50.730;-1.932;2023-05-23T07:14:51;102100.40;;;12.31;100.00
49645;BME280;36494;50.730;-1.932;2023-05-23T07:17:16;102094.99;;;12.37;100.00
49645;BME280;36494;50.730;-1.932;2023-05-23T07:19:42;102096.52;;;12.44;100.00
49645;BME280;36494;50.730;-1.932;2023-05-23T07:22:07;102095.36;;;12.52;100.00
49645;BME280;36494;50.730;-1.932;2023-05-23T07:24:32;102094.46;;;12.59;100.00
49645;BME280;36494;50.730;-1.932;2023-05-23T07:26:58;102098.63;;;12.62;100.00
49645;BME280;36494;50.730;-1.932;2023-05-23T07:29:23;102100.64;;;12.67;100.00
49645;BME280;36494;50.730;-1.932;2023-05-23T07:31:49;102101.67;;;12.73;100.00
49645;BME280;36494;50.730;-1.932;2023-05-23T07:34:14;102101.14;;;12.80;100.00
49645;BME280;36494;50.730;-1.932;2023-05-23T07:36:39;102096.03;;;12.86;100.00
49645;BME280;36494;50.730;-1.932;2023-05-23T07:39:05;102097.06;;;12.94;100.00
49645;BME280;36494;50.730;-1.932;2023-05-23T07:41:30;102097.92;;;12.99;100.00
49645;BME280;36494;50.730;-1.932;2023-05-23T07:43:55;102101.63;;;13.06;100.00
49645;BME280;36494;50.730;-1.932;2023-05-23T07:46:21;102105.87;;;13.13;100.00
49645;BME280;36494;50.730;-1.932;2023-05-23T07:48:46;102102.69;;;13.22;100.00
49645;BME280;36494;50.730;-1.932;2023-05-23T07:51:11;102098.78;;;13.31;100.00
49645;BME280;36494;50.730;-1.932;2023-05-23T07:53:36;102102.39;;;13.40;100.00
49645;BME280;36494;50.730;-1.932;2023-05-23T07:56:02;102103.94;;;13.49;100.00
49645;BME280;36494;50.730;-1.932;2023-05-23T07:58:27;102102.28;;;13.62;100.00
49645;BME280;36494;50.730;-1.932;2023-05-23T08:00:52;102102.42;;;13.71;100.00
49645;BME280;36494;50.730;-1.932;2023-05-23T08:03:18;102103.14;;;13.84;100.00
49645;BME280;36494;50.730;-1.932;2023-05-23T08:05:43;102102.34;;;13.98;100.00
49645;BME280;36494;50.730;-1.932;2023-05-23T08:08:08;102100.62;;;14.11;100.00
49645;BME280;36494;50.730;-1.932;2023-05-23T08:10:34;102101.09;;;14.20;100.00
49645;BME280;36494;50.730;-1.932;2023-05-23T08:12:59;102098.05;;;14.29;100.00
49645;BME280;36494;50.730;-1.932;2023-05-23T08:15:24;102095.36;;;14.38;100.00
49645;BME280;36494;50.730;-1.932;2023-05-23T08:17:50;102096.69;;;14.46;100.00
49645;BME280;36494;50.730;-1.932;2023-05-23T08:20:15;102097.38;;;14.52;100.00
49645;BME280;36494;50.730;-1.932;2023-05-23T08:22:40;102097.76;;;14.57;100.00
49645;BME280;36494;50.730;-1.932;2023-05-23T08:25:06;102097.94;;;14.65;100.00
49645;BME280;36494;50.730;-1.932;2023-05-23T08:27:31;102091.98;;;14.73;100.00
49645;BME280;36494;50.730;-1.932;2023-05-23T08:29:56;102093.67;;;14.79;100.00
49645;BME280;36494;50.730;-1.932;2023-05-23T08:32:22;102092.24;;;14.83;100.00
49645;BME280;36494;50.730;-1.932;2023-05-23T08:34:47;102093.82;;;14.94;100.00
49645;BME280;36494;50.730;-1.932;2023-05-23T08:37:12;102095.56;;;15.04;100.00
49645;BME280;36494;50.730;-1.932;2023-05-23T08:39:38;102091.73;;;15.10;100.00
49645;BME280;36494;50.730;-1.932;2023-05-23T08:42:04;102093.10;;;15.18;100.00
49645;BME280;36494;50.730;-1.932;2023-05-23T08:44:28;102099.21;;;15.27;100.00
49645;BME280;36494;50.730;-1.932;2023-05-23T08:46:54;102095.72;;;15.35;100.00
49645;BME280;36494;50.730;-1.932;2023-05-23T08:49:21;102093.26;;;15.44;100.00
49645;BME280;36494;50.730;-1.932;2023-05-23T08:51:46;102091.31;;;15.55;100.00
49645;BME280;36494;50.730;-1.932;2023-05-23T08:54:10;102085.38;;;15.59;100.00
49645;BME280;36494;50.730;-1.932;2023-05-23T08:56:35;102085.26;;;15.65;100.00
49645;BME280;36494;50.730;-1.932;2023-05-23T08:59:01;102089.98;;;15.79;100.00
49645;BME280;36494;50.730;-1.932;2023-05-23T09:01:26;102090.47;;;15.90;100.00
49645;BME280;36494;50.730;-1.932;2023-05-23T09:03:51;102089.17;;;15.97;100.00
49645;BME280;36494;50.730;-1.932;2023-05-23T09:06:20;102086.98;;;16.00;100.00
49645;BME280;36494;50.730;-1.932;2023-05-23T09:08:42;102083.51;;;16.07;100.00
49645;BME280;36494;50.730;-1.932;2023-05-23T09:11:07;102083.21;;;16.20;100.00
49645;BME280;36494;50.730;-1.932;2023-05-23T09:13:33;102084.97;;;16.30;100.00
49645;BME280;36494;50.730;-1.932;2023-05-23T09:16:03;102090.94;;;16.40;100.00
49645;BME280;36494;50.730;-1.932;2023-05-23T09:18:24;102094.16;;;16.48;100.00
49645;BME280;36494;50.730;-1.932;2023-05-23T09:20:48;102094.95;;;16.53;100.00
49645;BME280;36494;50.730;-1.932;2023-05-23T09:23:14;102094.10;;;16.57;100.00
49645;BME280;36494;50.730;-1.932;2023-05-23T09:25:45;102095.60;;;16.60;100.00
49645;BME280;36494;50.730;-1.932;2023-05-23T09:28:04;102089.18;;;16.70;100.00
49645;BME280;36494;50.730;-1.932;2023-05-23T09:30:33;102087.94;;;16.81;100.00
49645;BME280;36494;50.730;-1.932;2023-05-23T09:32:57;102087.41;;;16.95;100.00
49645;BME280;36494;50.730;-1.932;2023-05-23T09:35:22;102087.32;;;17.09;100.00
49645;BME280;36494;50.730;-1.932;2023-05-23T09:37:46;102086.47;;;17.16;100.00
49645;BME280;36494;50.730;-1.932;2023-05-23T09:40:13;102079.83;;;17.18;100.00
49645;BME280;36494;50.730;-1.932;2023-05-23T09:42:41;102083.04;;;17.34;100.00
49645;BME280;36494;50.730;-1.932;2023-05-23T09:45:02;102086.44;;;17.50;100.00
49645;BME280;36494;50.730;-1.932;2023-05-23T09:47:27;102083.05;;;17.60;100.00
49645;BME280;36494;50.730;-1.932;2023-05-23T09:49:52;102089.23;;;17.76;100.00
49645;BME280;36494;50.730;-1.932;2023-05-23T09:52:17;102085.82;;;17.92;100.00
49645;BME280;36494;50.730;-1.932;2023-05-23T09:54:43;102088.52;;;18.15;100.00
49645;BME280;36494;50.730;-1.932;2023-05-23T09:57:09;102089.28;;;18.32;100.00
49645;BME280;36494;50.730;-1.932;2023-05-23T09:59:36;102088.96;;;18.46;100.00
49645;BME280;36494;50.730;-1.932;2023-05-23T10:02:01;102092.67;;;18.53;100.00
49645;BME280;36494;50.730;-1.932;2023-05-23T10:04:25;102091.71;;;18.58;100.00
49645;BME280;36494;50.730;-1.932;2023-05-23T10:06:53;102093.91;;;18.64;100.00
49645;BME280;36494;50.730;-1.932;2023-05-23T10:09:17;102098.15;;;18.82;100.00
49645;BME280;36494;50.730;-1.932;2023-05-23T10:14:08;102100.96;;;19.15;100.00
49645;BME280;36494;50.730;-1.932;2023-05-23T10:16:39;102103.54;;;19.18;100.00
49645;BME280;36494;50.730;-1.932;2023-05-23T10:18:59;102103.37;;;19.10;100.00
49645;BME280;36494;50.730;-1.932;2023-05-23T10:21:24;102107.79;;;19.11;100.00
49645;BME280;36494;50.730;-1.932;2023-05-23T10:23:47;102105.81;;;19.32;100.00
49645;BME280;36494;50.730;-1.932;2023-05-23T10:26:13;102107.10;;;19.49;100.00
49645;BME280;36494;50.730;-1.932;2023-05-23T10:28:39;102098.61;;;19.54;100.00
49645;BME280;36494;50.730;-1.932;2023-05-23T10:31:03;102098.93;;;19.61;100.00
49645;BME280;36494;50.730;-1.932;2023-05-23T10:33:33;102097.14;;;19.78;100.00
49645;BME280;36494;50.730;-1.932;2023-05-23T10:35:58;102102.66;;;19.89;100.00
49645;BME280;36494;50.730;-1.932;2023-05-23T10:38:29;102103.67;;;19.93;100.00
49645;BME280;36494;50.730;-1.932;2023-05-23T10:40:59;102097.87;;;19.99;100.00
49645;BME280;36494;50.730;-1.932;2023-05-23T10:43:17;102096.02;;;20.11;100.00
49645;BME280;36494;50.730;-1.932;2023-05-23T10:45:40;102093.46;;;20.18;98.71
49645;BME280;36494;50.730;-1.932;2023-05-23T10:48:06;102103.46;;;20.13;99.59
49645;BME280;36494;50.730;-1.932;2023-05-23T10:50:30;102102.83;;;20.19;98.84
49645;BME280;36494;50.730;-1.932;2023-05-23T10:52:52;102101.51;;;20.48;100.00
49645;BME280;36494;50.730;-1.932;2023-05-23T10:55:19;102104.05;;;20.58;98.64
49645;BME280;36494;50.730;-1.932;2023-05-23T10:57:43;102103.96;;;20.80;99.02
49645;BME280;36494;50.730;-1.932;2023-05-23T11:00:13;102102.61;;;21.00;99.33
49645;BME280;36494;50.730;-1.932;2023-05-23T11:02:33;102096.57;;;21.14;96.44
49645;BME280;36494;50.730;-1.932;2023-05-23T11:07:28;102101.50;;;21.20;99.66
49645;BME280;36494;50.730;-1.932;2023-05-23T11:10:03;102098.82;;;21.25;96.99
49645;BME280;36494;50.730;-1.932;2023-05-23T11:12:15;102095.45;;;21.17;92.21
49645;BME280;36494;50.730;-1.932;2023-05-23T11:14:51;102097.76;;;21.15;94.12
49645;BME280;36494;50.730;-1.932;2023-05-23T11:17:15;102102.75;;;21.19;93.42
49645;BME280;36494;50.730;-1.932;2023-05-23T11:19:30;102097.62;;;21.16;92.24
49645;BME280;36494;50.730;-1.932;2023-05-23T11:21:58;102093.88;;;20.97;88.72
49645;BME280;36494;50.730;-1.932;2023-05-23T11:24:22;102095.85;;;20.96;99.12
49645;BME280;36494;50.730;-1.932;2023-05-23T11:26:52;102098.29;;;21.07;94.48
49645;BME280;36494;50.730;-1.932;2023-05-23T11:29:15;102100.38;;;20.89;90.55
49645;BME280;36494;50.730;-1.932;2023-05-23T11:31:37;102102.91;;;20.83;91.34
49645;BME280;36494;50.730;-1.932;2023-05-23T11:34:02;102101.55;;;20.83;95.00
49645;BME280;36494;50.730;-1.932;2023-05-23T11:36:28;102100.08;;;20.64;90.05
49645;BME280;36494;50.730;-1.932;2023-05-23T11:38:54;102099.18;;;20.68;93.64
49645;BME280;36494;50.730;-1.932;2023-05-23T11:41:18;102103.23;;;20.58;95.38
49645;BME280;36494;50.730;-1.932;2023-05-23T11:43:49;102099.65;;;20.61;93.63
49645;BME280;36494;50.730;-1.932;2023-05-23T11:46:08;102098.27;;;20.66;96.78
49645;BME280;36494;50.730;-1.932;2023-05-23T11:48:34;102099.24;;;20.59;91.91
49645;BME280;36494;50.730;-1.932;2023-05-23T11:50:59;102097.72;;;20.52;92.45
49645;BME280;36494;50.730;-1.932;2023-05-23T11:53:26;102101.84;;;20.44;91.66
49645;BME280;36494;50.730;-1.932;2023-05-23T11:55:51;102100.17;;;20.39;95.00
49645;BME280;36494;50.730;-1.932;2023-05-23T11:58:15;102098.15;;;20.41;93.61
49645;BME280;36494;50.730;-1.932;2023-05-23T12:00:43;102089.14;;;20.29;92.38
49645;BME280;36494;50.730;-1.932;2023-05-23T12:03:06;102092.27;;;20.14;92.72
49645;BME280;36494;50.730;-1.932;2023-05-23T12:05:31;102092.19;;;20.20;96.22
49645;BME280;36494;50.730;-1.932;2023-05-23T12:07:58;102095.77;;;20.27;94.30
49645;BME280;36494;50.730;-1.932;2023-05-23T12:10:26;102095.67;;;20.25;95.01
49645;BME280;36494;50.730;-1.932;2023-05-23T12:12:47;102095.61;;;20.28;96.37
49645;BME280;36494;50.730;-1.932;2023-05-23T12:15:13;102098.23;;;20.29;100.00
49645;BME280;36494;50.730;-1.932;2023-05-23T12:17:38;102102.02;;;20.41;100.00
49645;BME280;36494;50.730;-1.932;2023-05-23T12:20:04;102098.44;;;20.45;99.14
49645;BME280;36494;50.730;-1.932;2023-05-23T12:22:28;102100.57;;;20.36;96.78
49645;BME280;36494;50.730;-1.932;2023-05-23T12:24:55;102104.45;;;20.36;98.64